Time;durP1;ratioP1;P1;durP2;ratioP2;P2;SDS_P1;SDS_P2;PMS_P1;PMS_P2;Temp;Humidity;BMP_temperature;BMP_pressure;BME280_temperature;BME280_humidity;BME280_pressure;Samples;Min_cycle;Max_cycle;Signal;HPM_P1;HPM_P2
2023/12/20 00:01:04;;;;;;;10.50;8.73;;;7.30;99.90;;;;;;5007541;28;20508;-67
2023/12/20 00:03:32;;;;;;;6.47;4.50;;;7.30;99.90;;;;;;5001126;28;20584;-66
2023/12/20 00:06:00;;;;;;;6.40;4.13;;;7.20;99.90;;;;;;5000859;28;20471;-67
2023/12/20 00:08:27;;;;;;;5.30;3.97;;;7.00;99.90;;;;;;4999928;28;20782;-67
2023/12/20 00:10:55;;;;;;;7.37;3.77;;;7.00;99.90;;;;;;5000393;28;20461;-66
2023/12/20 00:13:22;;;;;;;6.20;5.27;;;7.00;99.90;;;;;;4999859;28;20787;-66
2023/12/20 00:15:50;;;;;;;5.90;5.20;;;6.90;99.90;;;;;;4999789;28;20585;-65
2023/12/20 00:18:18;;;;;;;9.10;5.23;;;6.90;99.90;;;;;;4999053;28;20604;-65
2023/12/20 00:20:45;;;;;;;7.60;5.47;;;6.90;99.90;;;;;;4999718;28;20472;-66
2023/12/20 00:23:13;;;;;;;6.97;5.43;;;6.80;99.90;;;;;;4999756;28;20837;-65
2023/12/20 00:25:40;;;;;;;9.20;5.70;;;6.80;99.90;;;;;;4999577;28;20465;-65
2023/12/20 00:28:07;;;;;;;14.80;6.37;;;6.80;99.90;;;;;;4999458;28;20449;-66
2023/12/20 00:30:34;;;;;;;7.70;6.20;;;6.80;99.90;;;;;;4999656;28;20552;-65
2023/12/20 00:33:03;;;;;;;7.50;5.93;;;6.80;99.90;;;;;;4998911;28;20443;-66
2023/12/20 00:35:31;;;;;;;9.90;6.83;;;6.80;99.90;;;;;;4999555;28;20905;-66
2023/12/20 00:37:59;;;;;;;12.80;7.00;;;6.80;99.90;;;;;;4999716;28;20497;-65
2023/12/20 00:40:26;;;;;;;12.17;7.20;;;6.80;99.90;;;;;;4999156;28;20536;-65
2023/12/20 00:42:52;;;;;;;10.43;5.90;;;6.80;99.90;;;;;;4999228;28;20461;-65
2023/12/20 00:45:19;;;;;;;14.63;7.20;;;6.80;99.90;;;;;;4999274;28;20966;-66
2023/12/20 00:47:46;;;;;;;12.50;7.33;;;6.80;99.90;;;;;;4999438;28;20573;-66
2023/12/20 00:50:15;;;;;;;15.87;7.87;;;6.80;99.90;;;;;;4999081;28;20916;-66
2023/12/20 00:52:43;;;;;;;12.83;8.17;;;6.80;99.90;;;;;;4998588;28;20469;-65
2023/12/20 00:55:10;;;;;;;17.63;8.60;;;6.80;99.90;;;;;;4999064;28;20461;-66
2023/12/20 00:57:37;;;;;;;13.20;8.17;;;6.80;99.90;;;;;;4999079;28;20467;-66
2023/12/20 01:00:05;;;;;;;16.27;6.93;;;6.80;99.90;;;;;;4999023;28;20887;-66
2023/12/20 01:02:32;;;;;;;9.90;7.23;;;6.70;99.90;;;;;;4998733;28;20460;-66
2023/12/20 01:04:59;;;;;;;8.53;7.30;;;6.60;99.90;;;;;;4998697;28;20492;-66
2023/12/20 01:07:28;;;;;;;10.77;6.83;;;6.50;99.90;;;;;;4999158;28;20461;-66
2023/12/20 01:09:55;;;;;;;11.80;7.37;;;6.50;99.90;;;;;;4998703;28;20464;-66
2023/12/20 01:12:22;;;;;;;10.33;7.40;;;6.50;99.90;;;;;;4998471;28;20465;-66
2023/12/20 01:14:50;;;;;;;9.83;6.90;;;6.50;99.90;;;;;;4998745;28;20938;-65
2023/12/20 01:17:17;;;;;;;10.27;8.17;;;6.50;99.90;;;;;;4998718;28;20945;-66
2023/12/20 01:19:44;;;;;;;11.30;7.40;;;6.40;99.90;;;;;;4998013;28;20924;-65
2023/12/20 01:22:11;;;;;;;11.53;7.03;;;6.50;99.90;;;;;;4998595;28;20958;-65
2023/12/20 01:24:40;;;;;;;13.23;6.70;;;6.40;99.90;;;;;;4998329;28;20493;-66
2023/12/20 01:27:06;;;;;;;13.97;6.70;;;6.40;99.90;;;;;;4998613;28;20464;-65
2023/12/20 01:29:33;;;;;;;10.60;6.90;;;6.40;99.90;;;;;;4998774;28;20793;-65
2023/12/20 01:32:00;;;;;;;11.13;6.70;;;6.30;99.90;;;;;;4998572;28;20871;-65
2023/12/20 01:34:29;;;;;;;10.00;6.80;;;6.30;99.90;;;;;;4998289;28;20523;-65
2023/12/20 01:36:56;;;;;;;11.57;5.80;;;6.30;99.90;;;;;;4998260;28;20469;-66
2023/12/20 01:39:23;;;;;;;12.00;6.33;;;6.30;99.90;;;;;;4998450;28;20984;-65
2023/12/20 01:41:51;;;;;;;12.10;6.97;;;6.30;99.90;;;;;;4998451;28;20560;-65
2023/12/20 01:44:19;;;;;;;11.60;8.80;;;6.30;99.90;;;;;;4998158;28;20496;-66
2023/12/20 01:46:47;;;;;;;14.73;8.57;;;6.40;99.90;;;;;;4998376;28;20986;-66
2023/12/20 01:49:16;;;;;;;14.00;10.70;;;6.40;99.90;;;;;;4998147;28;20461;-66
2023/12/20 01:51:44;;;;;;;13.83;10.77;;;6.40;99.90;;;;;;4998603;28;20469;-65
2023/12/20 01:54:12;;;;;;;19.60;12.20;;;6.40;99.90;;;;;;4997791;28;20520;-66
2023/12/20 01:56:41;;;;;;;16.37;13.10;;;6.40;99.90;;;;;;4998075;28;20560;-65
2023/12/20 01:59:10;;;;;;;22.30;14.40;;;6.30;99.90;;;;;;4998315;28;20474;-65
2023/12/20 02:01:37;;;;;;;15.93;12.70;;;6.30;99.90;;;;;;4998405;28;20431;-65
2023/12/20 02:04:05;;;;;;;23.97;13.87;;;6.30;99.90;;;;;;5000765;28;20499;-66
2023/12/20 02:06:35;;;;;;;22.20;15.00;;;6.20;99.90;;;;;;5002115;28;20825;-65
2023/12/20 02:09:02;;;;;;;23.57;14.70;;;6.20;99.90;;;;;;5002229;28;20468;-65
2023/12/20 02:11:32;;;;;;;15.23;13.03;;;6.30;99.90;;;;;;5002292;28;20467;-66
2023/12/20 02:13:59;;;;;;;19.40;12.93;;;6.30;99.90;;;;;;5002123;28;20460;-66
2023/12/20 02:16:32;;;;;;;18.80;12.53;;;6.20;99.90;;;;;;5001708;28;20464;-65
2023/12/20 02:18:59;;;;;;;14.50;10.60;;;6.20;99.90;;;;;;5001667;28;20489;-65
2023/12/20 02:21:34;;;;;;;17.90;12.50;;;6.20;99.90;;;;;;5002086;28;20923;-65
2023/12/20 02:24:01;;;;;;;15.40;11.00;;;6.10;99.90;;;;;;5002271;28;20462;-65
2023/12/20 02:26:29;;;;;;;17.17;10.73;;;6.20;99.90;;;;;;5002104;28;20461;-65
2023/12/20 02:28:56;;;;;;;17.90;12.40;;;6.20;99.90;;;;;;5001553;28;20862;-66
2023/12/20 02:31:26;;;;;;;18.07;12.37;;;6.20;99.90;;;;;;5002044;28;20552;-64
2023/12/20 02:33:53;;;;;;;16.03;12.70;;;6.20;99.90;;;;;;5001798;28;20475;-65
2023/12/20 02:36:20;;;;;;;16.43;12.60;;;6.10;99.90;;;;;;5001517;28;20791;-65
2023/12/20 02:38:50;;;;;;;16.40;12.63;;;6.10;99.90;;;;;;5003753;28;20465;-65
2023/12/20 02:41:18;;;;;;;19.27;13.23;;;6.10;99.90;;;;;;5021162;28;20579;-65
2023/12/20 02:43:45;;;;;;;16.83;12.33;;;6.10;99.90;;;;;;5021153;28;20504;-65
2023/12/20 02:46:17;;;;;;;20.83;11.53;;;6.00;99.90;;;;;;5020767;28;20569;-66
2023/12/20 02:48:44;;;;;;;15.00;12.37;;;6.00;99.90;;;;;;5020366;28;20552;-66
2023/12/20 02:51:11;;;;;;;15.97;11.33;;;5.90;99.90;;;;;;5021097;28;20435;-65
2023/12/20 02:53:38;;;;;;;17.67;11.47;;;5.80;99.90;;;;;;5021199;28;20463;-65
2023/12/20 02:56:07;;;;;;;18.90;12.20;;;5.80;99.90;;;;;;5020536;28;20759;-65
2023/12/20 02:58:34;;;;;;;18.80;9.70;;;5.80;99.90;;;;;;5021298;28;20434;-65
2023/12/20 03:01:02;;;;;;;19.43;10.50;;;5.80;99.90;;;;;;5020682;28;20466;-66
2023/12/20 03:03:29;;;;;;;15.93;9.80;;;5.80;99.90;;;;;;5020742;28;20493;-65
2023/12/20 03:05:56;;;;;;;23.77;11.33;;;5.80;99.90;;;;;;5020753;28;20491;-65
2023/12/20 03:08:23;;;;;;;20.73;10.53;;;5.90;99.90;;;;;;5020675;28;20470;-65
2023/12/20 03:10:51;;;;;;;22.93;11.70;;;5.90;99.90;;;;;;5020131;28;20439;-66
2023/12/20 03:13:19;;;;;;;21.60;12.57;;;5.90;99.90;;;;;;5020507;28;20558;-65
2023/12/20 03:15:46;;;;;;;17.60;10.53;;;5.90;99.90;;;;;;5020205;28;20833;-65
2023/12/20 03:18:14;;;;;;;20.97;12.77;;;5.90;99.90;;;;;;5020319;28;20766;-65
2023/12/20 03:20:41;;;;;;;17.47;12.23;;;5.90;99.90;;;;;;5020327;28;20562;-65
2023/12/20 03:23:08;;;;;;;19.43;11.50;;;5.80;99.90;;;;;;5020336;28;20460;-65
2023/12/20 03:25:35;;;;;;;20.67;12.10;;;5.80;99.90;;;;;;5020371;28;20502;-65
2023/12/20 03:28:03;;;;;;;18.37;11.07;;;5.90;99.90;;;;;;5020601;28;20472;-66
2023/12/20 03:30:32;;;;;;;16.53;11.43;;;5.80;99.90;;;;;;5020212;28;20467;-65
2023/12/20 03:32:59;;;;;;;19.83;10.77;;;5.80;99.90;;;;;;5020031;28;20460;-65
2023/12/20 03:35:26;;;;;;;20.33;11.90;;;5.70;99.90;;;;;;5020128;28;20511;-65
2023/12/20 03:37:53;;;;;;;22.93;11.00;;;5.80;99.90;;;;;;5019487;28;20474;-64
2023/12/20 03:40:20;;;;;;;18.97;10.33;;;5.80;99.90;;;;;;5019878;28;20550;-64
2023/12/20 03:42:47;;;;;;;22.03;11.53;;;5.70;99.90;;;;;;5020167;28;20455;-65
2023/12/20 03:45:15;;;;;;;18.67;10.17;;;5.70;99.90;;;;;;5020271;28;20488;-65
2023/12/20 03:47:43;;;;;;;18.60;9.87;;;5.70;99.90;;;;;;5019978;28;20551;-65
2023/12/20 03:50:10;;;;;;;26.30;9.47;;;5.70;99.90;;;;;;5019721;28;20456;-65
2023/12/20 03:52:37;;;;;;;16.37;9.30;;;5.70;99.90;;;;;;5019678;28;20459;-65
2023/12/20 03:55:05;;;;;;;20.63;9.37;;;5.70;99.90;;;;;;5019809;28;20438;-65
2023/12/20 03:57:33;;;;;;;16.97;8.97;;;5.70;99.90;;;;;;5019489;28;20564;-64
2023/12/20 04:00:00;;;;;;;19.53;9.93;;;5.70;99.90;;;;;;5019717;28;20442;-64
2023/12/20 04:02:27;;;;;;;15.10;9.27;;;5.60;99.90;;;;;;5019524;28;20430;-65
2023/12/20 04:04:56;;;;;;;17.63;8.77;;;5.60;99.90;;;;;;5019401;28;20780;-65
2023/12/20 04:07:23;;;;;;;20.20;9.27;;;5.70;99.90;;;;;;5019999;28;20514;-64
2023/12/20 04:09:50;;;;;;;18.73;9.50;;;5.70;99.90;;;;;;5019423;28;20551;-64
2023/12/20 04:12:18;;;;;;;21.30;10.03;;;5.70;99.90;;;;;;5019469;28;20471;-69
2023/12/20 04:14:45;;;;;;;15.20;9.23;;;5.70;99.90;;;;;;5019573;28;20455;-64
2023/12/20 04:17:15;;;;;;;13.57;9.57;;;5.70;99.90;;;;;;5013773;28;20463;-65
2023/12/20 04:19:43;;;;;;;22.63;8.87;;;5.60;99.90;;;;;;5016183;28;20582;-65
2023/12/20 04:22:11;;;;;;;16.30;9.53;;;5.70;99.90;;;;;;5019274;28;20463;-64
2023/12/20 04:24:38;;;;;;;16.03;8.87;;;5.70;99.90;;;;;;5019044;28;20503;-64
2023/12/20 04:27:06;;;;;;;26.70;10.23;;;5.60;99.90;;;;;;5018486;28;20934;-64
2023/12/20 04:29:33;;;;;;;18.77;8.50;;;5.70;99.90;;;;;;5019209;28;20468;-65
2023/12/20 04:32:00;;;;;;;20.60;9.13;;;5.70;99.90;;;;;;5018473;28;20467;-64
2023/12/20 04:34:27;;;;;;;19.40;8.13;;;5.70;99.90;;;;;;5019076;28;20440;-64
2023/12/20 04:36:55;;;;;;;21.70;7.93;;;5.60;99.90;;;;;;5018950;28;20870;-65
2023/12/20 04:39:23;;;;;;;16.93;8.20;;;5.70;99.90;;;;;;5019098;28;20468;-64
2023/12/20 04:41:50;;;;;;;16.53;8.13;;;5.60;99.90;;;;;;5019023;28;20767;-64
2023/12/20 04:44:17;;;;;;;17.37;7.90;;;5.60;99.90;;;;;;5018504;28;20539;-64
2023/12/20 04:46:45;;;;;;;15.37;8.10;;;5.60;99.90;;;;;;5017294;28;20747;-64
2023/12/20 04:49:12;;;;;;;21.90;8.20;;;5.60;99.90;;;;;;5017207;28;20464;-64
2023/12/20 04:51:39;;;;;;;26.47;9.67;;;5.60;99.90;;;;;;5017185;28;20971;-65
2023/12/20 04:54:06;;;;;;;20.40;9.07;;;5.60;99.90;;;;;;5017176;28;20467;-63
2023/12/20 04:56:35;;;;;;;23.50;9.50;;;5.60;99.90;;;;;;5016865;28;20554;-65
2023/12/20 04:59:02;;;;;;;19.27;9.93;;;5.60;99.90;;;;;;5017339;28;20463;-63
2023/12/20 05:01:29;;;;;;;23.27;10.60;;;5.60;99.90;;;;;;5018818;28;20507;-65
2023/12/20 05:03:56;;;;;;;29.17;11.30;;;5.60;99.90;;;;;;5019010;28;20758;-63
2023/12/20 05:06:24;;;;;;;16.00;10.30;;;5.50;99.90;;;;;;5017977;28;20491;-63
2023/12/20 05:08:51;;;;;;;20.47;10.50;;;5.50;99.90;;;;;;5018430;28;20519;-64
2023/12/20 05:11:18;;;;;;;25.37;11.60;;;5.50;99.90;;;;;;5018174;28;20467;-63
2023/12/20 05:13:47;;;;;;;21.63;11.00;;;5.50;99.90;;;;;;5018549;28;20476;-64
2023/12/20 05:16:17;;;;;;;27.20;12.13;;;5.50;99.90;;;;;;5018105;28;20461;-63
2023/12/20 05:18:44;;;;;;;19.60;10.30;;;5.60;99.90;;;;;;5017957;28;20495;-64
2023/12/20 05:21:12;;;;;;;21.80;10.33;;;5.60;99.90;;;;;;5018383;28;20765;-64
2023/12/20 05:23:39;;;;;;;17.23;10.17;;;5.50;99.90;;;;;;5018506;28;20468;-63
2023/12/20 05:26:06;;;;;;;19.87;10.47;;;5.50;99.90;;;;;;5018619;28;20476;-67
2023/12/20 05:28:33;;;;;;;20.60;10.57;;;5.50;99.90;;;;;;5017813;28;20435;-64
2023/12/20 05:31:02;;;;;;;23.70;11.00;;;5.50;99.90;;;;;;5018036;28;20460;-63
2023/12/20 05:33:30;;;;;;;20.43;10.80;;;5.50;99.90;;;;;;5018116;28;20467;-66
2023/12/20 05:35:57;;;;;;;20.53;10.83;;;5.50;99.90;;;;;;5018191;28;20761;-65
2023/12/20 05:38:25;;;;;;;23.27;10.30;;;5.50;99.90;;;;;;5017677;28;20464;-63
2023/12/20 05:40:52;;;;;;;21.73;10.90;;;5.50;99.90;;;;;;5018296;28;20442;-64
2023/12/20 05:43:19;;;;;;;18.30;9.93;;;5.50;99.90;;;;;;5017862;28;20904;-64
2023/12/20 05:45:46;;;;;;;21.37;10.20;;;5.50;99.90;;;;;;5017405;28;20477;-64
2023/12/20 05:48:15;;;;;;;17.27;10.40;;;5.50;99.90;;;;;;5017551;28;20763;-63
2023/12/20 05:50:42;;;;;;;20.10;10.70;;;5.50;99.90;;;;;;5018023;28;20460;-63
2023/12/20 05:53:09;;;;;;;19.10;10.30;;;5.60;99.90;;;;;;5016717;28;20460;-64
2023/12/20 05:55:37;;;;;;;22.13;11.33;;;5.60;99.90;;;;;;5016496;28;20735;-64
2023/12/20 05:58:05;;;;;;;21.33;10.40;;;5.50;99.90;;;;;;5016399;28;20434;-63
2023/12/20 06:00:32;;;;;;;16.87;9.10;;;5.50;99.90;;;;;;5016681;28;20463;-63
2023/12/20 06:02:59;;;;;;;21.43;11.07;;;5.50;99.90;;;;;;5017183;28;20460;-63
2023/12/20 06:05:28;;;;;;;18.50;9.33;;;5.60;99.90;;;;;;5017090;28;20868;-64
2023/12/20 06:07:56;;;;;;;24.70;11.30;;;5.50;99.90;;;;;;5017678;28;20466;-63
2023/12/20 06:10:24;;;;;;;20.77;10.47;;;5.50;99.90;;;;;;5017425;28;20584;-63
2023/12/20 06:12:51;;;;;;;28.93;9.10;;;5.50;99.90;;;;;;5015981;28;20479;-63
2023/12/20 06:15:19;;;;;;;20.40;10.30;;;5.60;99.90;;;;;;5015469;28;20463;-64
2023/12/20 06:17:46;;;;;;;19.13;9.73;;;5.50;99.90;;;;;;5015788;28;20767;-63
2023/12/20 06:20:14;;;;;;;19.27;9.57;;;5.60;99.90;;;;;;5016033;28;20467;-63
2023/12/20 06:22:42;;;;;;;17.53;8.30;;;5.50;99.90;;;;;;5015667;28;20466;-63
2023/12/20 06:25:10;;;;;;;21.17;9.20;;;5.50;99.90;;;;;;5015438;28;20865;-63
2023/12/20 06:27:37;;;;;;;17.23;7.80;;;5.50;99.90;;;;;;5017032;28;20559;-63
2023/12/20 06:30:05;;;;;;;20.87;9.23;;;5.50;99.90;;;;;;5017697;28;20460;-63
2023/12/20 06:32:32;;;;;;;16.50;9.10;;;5.60;99.90;;;;;;5017034;28;20466;-64
2023/12/20 06:34:59;;;;;;;20.30;10.20;;;5.50;99.90;;;;;;5016052;28;20456;-65
2023/12/20 06:37:26;;;;;;;21.73;10.50;;;5.50;99.90;;;;;;5016248;28;20467;-64
2023/12/20 06:39:56;;;;;;;21.13;10.90;;;5.50;99.90;;;;;;5008460;28;20551;-65
2023/12/20 06:42:23;;;;;;;15.63;10.53;;;5.50;99.90;;;;;;5016791;28;20471;-67
2023/12/20 06:44:50;;;;;;;22.07;10.30;;;5.50;99.90;;;;;;5018041;28;20737;-67
2023/12/20 06:47:18;;;;;;;16.77;10.13;;;5.50;99.90;;;;;;5017662;28;20498;-66
2023/12/20 06:49:45;;;;;;;26.70;11.07;;;5.50;99.90;;;;;;5018873;28;20466;-65
2023/12/20 06:52:12;;;;;;;23.33;11.03;;;5.50;99.90;;;;;;5021867;28;20743;-66
2023/12/20 06:54:39;;;;;;;19.07;11.37;;;5.50;99.90;;;;;;5022033;28;20466;-67
2023/12/20 06:57:08;;;;;;;20.50;11.30;;;5.50;99.90;;;;;;5021831;28;20456;-68
2023/12/20 06:59:39;;;;;;;30.90;11.93;;;5.40;99.90;;;;;;5022360;28;20460;-66
2023/12/20 07:02:07;;;;;;;15.67;10.40;;;5.50;99.90;;;;;;5021588;28;20456;-66
2023/12/20 07:04:34;;;;;;;28.73;11.80;;;5.50;99.90;;;;;;5021572;28;20510;-67
2023/12/20 07:07:01;;;;;;;29.30;12.60;;;5.40;99.90;;;;;;5021472;28;20505;-66
2023/12/20 07:09:29;;;;;;;20.60;10.80;;;5.50;99.90;;;;;;5021712;28;20503;-66
2023/12/20 07:11:56;;;;;;;19.83;10.53;;;5.50;99.90;;;;;;5021314;28;20559;-65
2023/12/20 07:14:25;;;;;;;20.33;10.10;;;5.40;99.90;;;;;;5020686;28;20514;-65
2023/12/20 07:16:52;;;;;;;19.43;11.50;;;5.40;99.90;;;;;;5020806;28;20460;-65
2023/12/20 07:19:19;;;;;;;17.27;11.20;;;5.50;99.90;;;;;;5020307;28;20469;-65
2023/12/20 07:21:46;;;;;;;24.07;12.23;;;5.50;99.90;;;;;;5017470;28;20456;-66
2023/12/20 07:24:13;;;;;;;23.83;10.90;;;5.50;99.90;;;;;;5011182;28;20559;-65
2023/12/20 07:26:40;;;;;;;20.63;10.20;;;5.50;99.90;;;;;;4999829;28;20591;-66
2023/12/20 07:29:08;;;;;;;19.93;9.83;;;5.50;99.90;;;;;;5000162;28;20460;-65
2023/12/20 07:31:36;;;;;;;28.07;10.57;;;5.50;99.90;;;;;;5000838;28;20982;-66
2023/12/20 07:34:03;;;;;;;18.43;10.70;;;5.50;99.90;;;;;;5000394;28;20489;-67
2023/12/20 07:36:31;;;;;;;22.00;8.93;;;5.50;99.90;;;;;;5000126;28;20525;-66
2023/12/20 07:38:58;;;;;;;18.77;10.17;;;5.50;99.90;;;;;;5016568;28;20460;-66
2023/12/20 07:41:25;;;;;;;20.07;10.40;;;5.50;99.90;;;;;;5000400;28;20560;-67
2023/12/20 07:43:53;;;;;;;23.03;9.93;;;5.50;99.90;;;;;;5000018;28;20460;-66
2023/12/20 07:46:23;;;;;;;20.37;10.27;;;5.50;99.90;;;;;;4998480;28;20627;-66
2023/12/20 07:48:52;;;;;;;21.70;9.50;;;5.60;99.90;;;;;;5003614;28;20435;-67
2023/12/20 07:51:21;;;;;;;23.53;9.40;;;5.60;99.90;;;;;;5012160;28;20587;-66
2023/12/20 07:53:48;;;;;;;22.50;9.97;;;5.60;99.90;;;;;;5007211;28;20881;-66
2023/12/20 07:56:16;;;;;;;21.83;8.80;;;5.60;99.90;;;;;;5020347;28;20517;-66
2023/12/20 07:58:43;;;;;;;18.20;9.27;;;5.60;99.90;;;;;;5020336;28;20993;-66
2023/12/20 08:01:11;;;;;;;25.03;11.10;;;5.60;99.90;;;;;;5005816;28;20904;-66
2023/12/20 08:03:39;;;;;;;21.23;9.53;;;5.60;99.90;;;;;;5000203;28;20465;-66
2023/12/20 08:06:07;;;;;;;19.90;9.03;;;5.60;99.90;;;;;;5000295;28;20588;-66
2023/12/20 08:08:35;;;;;;;19.63;9.53;;;5.60;99.90;;;;;;5000342;28;20445;-65
2023/12/20 08:11:02;;;;;;;24.63;10.27;;;5.60;99.90;;;;;;5018901;28;20469;-66
2023/12/20 08:13:30;;;;;;;15.87;8.80;;;5.60;99.90;;;;;;5019161;28;20546;-65
2023/12/20 08:15:57;;;;;;;23.97;10.03;;;5.60;99.90;;;;;;5002523;28;20515;-66
2023/12/20 08:18:25;;;;;;;20.43;10.23;;;5.60;99.90;;;;;;5018929;28;20924;-65
2023/12/20 08:20:53;;;;;;;20.33;9.03;;;5.60;99.90;;;;;;5019246;28;20944;-65
2023/12/20 08:23:22;;;;;;;24.53;10.50;;;5.70;99.90;;;;;;5019501;28;20904;-66
2023/12/20 08:25:49;;;;;;;15.13;8.47;;;5.60;99.90;;;;;;5019369;28;20555;-67
2023/12/20 08:28:17;;;;;;;23.83;9.87;;;5.70;99.90;;;;;;5018971;28;20551;-66
2023/12/20 08:30:44;;;;;;;18.77;8.80;;;5.70;99.90;;;;;;5019583;28;20551;-66
2023/12/20 08:33:12;;;;;;;18.43;9.97;;;5.70;99.90;;;;;;5016661;28;20943;-66
2023/12/20 08:35:40;;;;;;;22.57;11.10;;;5.70;99.90;;;;;;5015914;28;20464;-66
2023/12/20 08:38:08;;;;;;;17.20;9.73;;;5.70;99.90;;;;;;5016273;28;20464;-66
2023/12/20 08:40:37;;;;;;;24.27;9.07;;;5.70;99.90;;;;;;5015990;28;20464;-66
2023/12/20 08:43:05;;;;;;;19.50;9.60;;;5.70;99.90;;;;;;5016619;28;20470;-66
2023/12/20 08:45:32;;;;;;;23.00;10.17;;;5.70;99.90;;;;;;5015305;28;20503;-66
2023/12/20 08:47:59;;;;;;;15.40;8.50;;;5.70;99.90;;;;;;5016035;28;20483;-65
2023/12/20 08:50:27;;;;;;;20.30;8.73;;;5.70;99.90;;;;;;5015340;28;20460;-65
2023/12/20 08:52:54;;;;;;;17.67;9.67;;;5.70;99.90;;;;;;5015832;28;20557;-67
2023/12/20 08:55:21;;;;;;;25.73;9.60;;;5.70;99.90;;;;;;5017139;28;20956;-67
2023/12/20 08:57:50;;;;;;;18.60;10.00;;;5.70;99.90;;;;;;5017222;28;20829;-65
2023/12/20 09:00:20;;;;;;;22.97;11.20;;;5.70;99.90;;;;;;5017708;28;20468;-66
2023/12/20 09:02:48;;;;;;;17.37;8.83;;;5.80;99.90;;;;;;5017272;28;20446;-66
2023/12/20 09:05:15;;;;;;;19.27;9.27;;;5.80;99.90;;;;;;5017849;28;20558;-66
2023/12/20 09:07:43;;;;;;;19.67;9.07;;;5.80;99.90;;;;;;5018192;28;20810;-67
2023/12/20 09:10:10;;;;;;;22.30;9.17;;;5.80;99.90;;;;;;5018245;28;20464;-66
2023/12/20 09:12:40;;;;;;;18.70;9.50;;;5.80;99.90;;;;;;4999002;28;20953;-67
2023/12/20 09:15:10;;;;;;;29.77;9.77;;;5.80;99.90;;;;;;5013202;28;20503;-65
2023/12/20 09:17:37;;;;;;;16.73;10.07;;;5.80;99.90;;;;;;4998875;28;20431;-66
2023/12/20 09:20:06;;;;;;;18.50;8.30;;;5.80;99.90;;;;;;4998789;28;20457;-67
2023/12/20 09:22:34;;;;;;;20.13;8.30;;;5.80;99.90;;;;;;4998553;28;20475;-65
2023/12/20 09:25:02;;;;;;;16.13;8.67;;;5.80;99.90;;;;;;4998039;28;20531;-65
2023/12/20 09:27:29;;;;;;;17.63;8.50;;;5.80;99.90;;;;;;4997709;28;20543;-66
2023/12/20 09:29:56;;;;;;;17.90;6.77;;;5.80;99.90;;;;;;4997122;28;20489;-68
2023/12/20 09:32:27;;;;;;;17.53;8.47;;;5.80;99.90;;;;;;4996337;28;20527;-66
2023/12/20 09:34:54;;;;;;;20.80;7.80;;;5.80;99.90;;;;;;4996795;28;20485;-66
2023/12/20 09:37:22;;;;;;;19.17;8.00;;;5.80;99.90;;;;;;4996824;28;20464;-67
2023/12/20 09:39:49;;;;;;;18.30;7.67;;;5.90;99.90;;;;;;4997311;28;20471;-66
2023/12/20 09:42:24;;;;;;;20.57;8.40;;;5.80;99.90;;;;;;4996440;28;20844;-66
2023/12/20 09:44:52;;;;;;;16.20;7.20;;;5.80;99.90;;;;;;4997873;28;20547;-65
2023/12/20 09:47:23;;;;;;;18.30;8.77;;;5.80;99.90;;;;;;5004595;28;20986;-66
2023/12/20 09:49:53;;;;;;;16.50;7.60;;;5.80;99.90;;;;;;5014453;28;20476;-66
2023/12/20 09:52:22;;;;;;;14.27;7.90;;;5.80;99.90;;;;;;5014027;28;20797;-65
2023/12/20 09:54:54;;;;;;;23.33;8.40;;;5.80;99.90;;;;;;5015726;28;20470;-66
2023/12/20 09:57:22;;;;;;;16.10;7.27;;;5.80;99.90;;;;;;5008519;28;20530;-65
2023/12/20 09:59:49;;;;;;;16.50;8.17;;;5.80;99.90;;;;;;5002628;28;20775;-65
2023/12/20 10:02:22;;;;;;;18.83;8.80;;;5.80;99.90;;;;;;5003870;28;20467;-65
2023/12/20 10:04:49;;;;;;;15.73;8.23;;;5.80;99.90;;;;;;4997114;28;20467;-65
2023/12/20 10:07:18;;;;;;;26.43;7.80;;;5.80;99.90;;;;;;4996954;28;20547;-66
2023/12/20 10:09:46;;;;;;;14.97;6.97;;;5.80;99.90;;;;;;4996279;28;20461;-65
2023/12/20 10:12:13;;;;;;;19.30;8.40;;;5.80;99.90;;;;;;4996194;28;20796;-65
2023/12/20 10:14:41;;;;;;;15.93;7.50;;;5.80;99.90;;;;;;4996191;28;20563;-66
2023/12/20 10:17:08;;;;;;;17.73;7.50;;;5.80;99.90;;;;;;4996465;28;20449;-66
2023/12/20 10:19:36;;;;;;;15.83;6.50;;;5.80;99.90;;;;;;4996346;28;20487;-66
2023/12/20 10:22:06;;;;;;;23.77;7.90;;;5.80;99.90;;;;;;4996677;28;20548;-66
2023/12/20 10:24:34;;;;;;;13.13;6.90;;;5.80;99.90;;;;;;4997395;28;20938;-65
2023/12/20 10:27:05;;;;;;;16.40;6.90;;;5.80;99.90;;;;;;5001205;28;20507;-64
2023/12/20 10:29:34;;;;;;;17.07;6.20;;;5.80;99.90;;;;;;5001491;28;20841;-64
2023/12/20 10:32:22;;;;;;;16.20;7.50;;;5.80;99.90;;;;;;5001671;28;20470;-66
2023/12/20 10:34:49;;;;;;;23.10;7.00;;;5.80;99.90;;;;;;5001877;28;20857;-65
2023/12/20 10:37:16;;;;;;;18.70;6.10;;;5.80;99.90;;;;;;5001892;28;20456;-65
2023/12/20 10:39:50;;;;;;;19.93;6.87;;;5.80;99.90;;;;;;5001378;28;20465;-65
2023/12/20 10:42:18;;;;;;;17.83;6.10;;;5.80;99.90;;;;;;5000231;28;20535;-69
2023/12/20 10:44:45;;;;;;;15.43;7.30;;;5.80;99.90;;;;;;5000138;28;20452;-65
2023/12/20 10:47:14;;;;;;;16.40;6.80;;;5.80;99.90;;;;;;5000619;28;20496;-65
2023/12/20 10:49:42;;;;;;;16.80;7.00;;;5.80;99.90;;;;;;4999917;28;20461;-65
2023/12/20 10:52:12;;;;;;;19.47;7.00;;;5.80;99.90;;;;;;4999694;28;20575;-65
2023/12/20 10:54:40;;;;;;;20.30;6.80;;;5.80;99.90;;;;;;5000647;28;20465;-65
2023/12/20 10:57:09;;;;;;;17.80;7.20;;;5.70;99.90;;;;;;5007787;28;20452;-65
2023/12/20 10:59:38;;;;;;;15.90;7.43;;;5.80;99.90;;;;;;5019581;28;20893;-71
2023/12/20 11:02:06;;;;;;;13.30;6.90;;;5.70;99.90;;;;;;5019694;28;20456;-66
2023/12/20 11:04:42;;;;;;;18.30;8.47;;;5.70;99.90;;;;;;5019131;28;20463;-65
2023/12/20 11:07:20;;;;;;;15.20;6.57;;;5.70;99.90;;;;;;5019585;28;20491;-66
2023/12/20 11:09:59;;;;;;;16.77;7.40;;;5.70;99.90;;;;;;5019557;28;20809;-65
2023/12/20 11:12:39;;;;;;;17.20;7.00;;;5.80;99.90;;;;;;5019638;28;20471;-66
2023/12/20 11:15:08;;;;;;;17.43;7.47;;;5.80;99.90;;;;;;5021060;28;20510;-66
2023/12/20 11:17:36;;;;;;;23.17;8.00;;;5.80;99.90;;;;;;5020968;28;20606;-65
2023/12/20 11:20:14;;;;;;;19.87;7.17;;;5.80;99.90;;;;;;5020605;28;20526;-65
2023/12/20 11:22:53;;;;;;;19.27;7.03;;;5.90;99.90;;;;;;5020399;28;20459;-66
2023/12/20 11:25:20;;;;;;;15.33;6.90;;;5.90;99.90;;;;;;5020798;28;20728;-65
2023/12/20 11:28:08;;;;;;;15.47;6.80;;;5.90;99.90;;;;;;5020061;28;20590;-66
2023/12/20 11:30:43;;;;;;;24.97;7.80;;;5.90;99.90;;;;;;5019952;28;20554;-65
2023/12/20 11:33:10;;;;;;;26.60;7.17;;;5.90;99.90;;;;;;5020062;28;20463;-65
2023/12/20 11:35:39;;;;;;;12.20;6.33;;;5.80;99.90;;;;;;5019710;28;20435;-65
2023/12/20 11:38:09;;;;;;;21.23;8.10;;;5.80;99.90;;;;;;5016669;28;20503;-65
2023/12/20 11:40:37;;;;;;;27.47;8.77;;;5.90;99.90;;;;;;5019763;28;20923;-66
2023/12/20 11:43:06;;;;;;;16.77;7.90;;;5.90;99.90;;;;;;5020187;28;20466;-69
2023/12/20 11:45:34;;;;;;;14.63;7.20;;;5.90;99.90;;;;;;5020706;28;20464;-67
2023/12/20 11:48:03;;;;;;;17.10;7.37;;;5.90;99.90;;;;;;5020458;28;20492;-66
2023/12/20 11:50:31;;;;;;;22.03;9.17;;;5.90;99.90;;;;;;5020292;28;20838;-66
2023/12/20 11:52:59;;;;;;;14.37;7.17;;;5.90;99.90;;;;;;5020500;28;20460;-66
2023/12/20 11:55:26;;;;;;;20.70;7.53;;;5.90;99.90;;;;;;5020134;28;20955;-67
2023/12/20 11:57:53;;;;;;;14.90;6.77;;;5.90;99.90;;;;;;5019942;28;20521;-65
2023/12/20 12:00:22;;;;;;;16.30;7.70;;;5.90;99.90;;;;;;5020199;28;20904;-64
2023/12/20 12:03:01;;;;;;;19.90;8.73;;;5.80;99.90;;;;;;5020099;28;20885;-66
2023/12/20 12:05:29;;;;;;;17.10;7.50;;;5.90;99.90;;;;;;5020595;28;20939;-65
2023/12/20 12:07:56;;;;;;;23.13;8.13;;;5.90;99.90;;;;;;5020227;28;20496;-65
2023/12/20 12:10:24;;;;;;;15.90;7.13;;;5.90;99.90;;;;;;5019978;28;20511;-65
2023/12/20 12:12:52;;;;;;;16.63;7.77;;;5.90;99.90;;;;;;5019566;28;20470;-66
2023/12/20 12:15:19;;;;;;;13.83;7.50;;;5.90;99.90;;;;;;5020233;28;20551;-65
2023/12/20 12:17:55;;;;;;;21.40;7.37;;;6.00;99.90;;;;;;5019575;28;20762;-66
2023/12/20 12:20:22;;;;;;;16.03;7.87;;;5.90;99.90;;;;;;5020168;28;20434;-65
2023/12/20 12:22:59;;;;;;;19.57;7.57;;;5.90;99.90;;;;;;5019931;28;20496;-64
2023/12/20 12:25:28;;;;;;;15.80;7.77;;;5.90;99.90;;;;;;4999919;28;20456;-65
2023/12/20 12:27:55;;;;;;;20.80;7.63;;;5.90;99.90;;;;;;4999867;28;20499;-64
2023/12/20 12:30:24;;;;;;;15.77;8.80;;;5.90;99.90;;;;;;4999695;28;20459;-66
2023/12/20 12:32:54;;;;;;;17.33;8.70;;;5.90;99.90;;;;;;4999380;28;20552;-65
2023/12/20 12:35:23;;;;;;;18.00;8.47;;;5.90;99.90;;;;;;4999270;28;20469;-66
2023/12/20 12:37:50;;;;;;;19.53;8.37;;;5.90;99.90;;;;;;4999488;28;20471;-66
2023/12/20 12:40:19;;;;;;;15.30;7.30;;;6.00;99.90;;;;;;4999201;28;20786;-66
2023/12/20 12:42:47;;;;;;;20.20;9.20;;;5.90;99.90;;;;;;4999302;28;20465;-66
2023/12/20 12:45:15;;;;;;;16.00;7.90;;;5.90;99.90;;;;;;4999425;28;20465;-65
2023/12/20 12:47:42;;;;;;;17.13;8.07;;;5.90;99.90;;;;;;4998985;28;20493;-65